createdAt,value
2022-11-29T00:00:26.652Z,45.70
2022-11-29T00:05:53.690Z,47.70
2022-11-29T00:11:06.390Z,45.10
2022-11-29T00:16:14.847Z,46.90
2022-11-29T00:21:21.766Z,49.00
2022-11-29T00:26:28.794Z,46.60
2022-11-29T00:31:36.345Z,44.60
2022-11-29T00:36:43.231Z,42.10
2022-11-29T00:41:50.577Z,46.80
2022-11-29T00:46:57.540Z,43.70
2022-11-29T00:52:04.606Z,44.20
2022-11-29T00:57:11.534Z,42.40
2022-11-29T01:02:18.598Z,45.20
2022-11-29T01:07:25.713Z,43.70
2022-11-29T01:12:32.523Z,45.10
2022-11-29T01:17:40.274Z,45.60
2022-11-29T01:22:47.062Z,43.50
2022-11-29T01:27:53.944Z,42.10
2022-11-29T01:33:01.058Z,46.60
2022-11-29T01:38:07.802Z,46.40
2022-11-29T01:43:19.732Z,43.20
2022-11-29T01:48:28.588Z,43.90
2022-11-29T01:53:35.890Z,46.50
2022-11-29T01:58:43.596Z,42.20
2022-11-29T02:03:50.841Z,43.90
2022-11-29T02:08:58.051Z,41.30
2022-11-29T02:14:23.605Z,41.30
2022-11-29T02:20:05.697Z,39.80
2022-11-29T02:25:33.841Z,40.90
2022-11-29T02:30:59.778Z,40.00
2022-11-29T02:36:31.523Z,40.70
2022-11-29T02:42:00.677Z,39.80
2022-11-29T02:47:22.046Z,39.00
2022-11-29T02:52:37.411Z,38.80
2022-11-29T02:57:51.752Z,38.80
2022-11-29T03:03:07.211Z,36.40
2022-11-29T03:08:23.596Z,36.70
2022-11-29T03:13:39.163Z,37.90
2022-11-29T03:18:56.039Z,34.50
2022-11-29T03:24:10.687Z,36.80
2022-11-29T03:29:27.989Z,35.20
2022-11-29T03:34:55.777Z,36.30
2022-11-29T03:40:08.158Z,36.40
2022-11-29T03:45:23.959Z,35.60
2022-11-29T03:50:38.141Z,32.80
2022-11-29T03:55:54.578Z,37.40
2022-11-29T04:01:36.670Z,36.70
2022-11-29T04:06:56.613Z,37.10
2022-11-29T04:12:30.017Z,36.60
2022-11-29T04:17:51.825Z,36.80
2022-11-29T04:23:33.824Z,37.30
2022-11-29T04:29:10.615Z,36.40
2022-11-29T04:35:08.309Z,36.30
2022-11-29T04:40:32.776Z,36.80
2022-11-29T04:45:54.995Z,38.60
2022-11-29T04:56:22.444Z,36.30
2022-11-29T05:01:39.974Z,37.10
2022-11-29T05:06:59.462Z,37.10
2022-11-29T05:12:16.841Z,40.10
2022-11-29T05:17:40.814Z,35.90
2022-11-29T05:23:03.763Z,37.10
2022-11-29T05:28:17.360Z,37.60
2022-11-29T05:33:38.883Z,38.90
2022-11-29T05:39:01.941Z,39.10
2022-11-29T05:44:13.936Z,38.50
2022-11-29T05:49:30.084Z,41.30
2022-11-29T05:54:44.714Z,40.70
2022-11-29T05:59:52.857Z,41.10
2022-11-29T06:05:08.542Z,39.10
2022-11-29T06:10:17.895Z,39.80
2022-11-29T06:15:50.023Z,37.00
2022-11-29T06:21:12.661Z,37.30
2022-11-29T06:26:39.347Z,39.00
2022-11-29T06:31:51.269Z,37.20
2022-11-29T06:37:05.372Z,37.00
2022-11-29T06:42:12.159Z,37.60
2022-11-29T06:47:27.739Z,40.50
2022-11-29T06:52:45.446Z,38.10
2022-11-29T06:58:04.763Z,39.00
2022-11-29T07:03:38.974Z,36.70
2022-11-29T07:08:46.667Z,35.30
2022-11-29T07:13:54.411Z,38.10
2022-11-29T07:19:13.430Z,39.60
2022-11-29T07:24:34.876Z,37.60
2022-11-29T07:29:51.044Z,40.00
2022-11-29T07:35:09.440Z,38.20
2022-11-29T07:40:21.049Z,39.30
2022-11-29T07:45:31.897Z,38.60
2022-11-29T07:50:40.425Z,42.90
2022-11-29T07:55:48.526Z,41.50
2022-11-29T08:00:56.029Z,41.60
2022-11-29T08:06:03.024Z,41.40
2022-11-29T08:11:15.558Z,40.70
2022-11-29T08:16:22.728Z,38.10
2022-11-29T08:21:29.642Z,41.00
2022-11-29T08:26:36.420Z,42.50
2022-11-29T08:31:43.409Z,40.80
2022-11-29T08:36:50.554Z,43.50
2022-11-29T08:41:57.273Z,40.10
2022-11-29T08:47:22.362Z,39.10
2022-11-29T08:52:47.424Z,41.90
2022-11-29T08:58:02.180Z,42.10
2022-11-29T09:03:27.572Z,42.90
2022-11-29T09:08:34.474Z,40.00
2022-11-29T09:13:41.779Z,41.90
2022-11-29T09:18:52.164Z,40.00
2022-11-29T09:24:01.580Z,41.20
2022-11-29T09:29:09.280Z,41.10
2022-11-29T09:34:18.560Z,39.30
2022-11-29T09:39:26.312Z,40.00
2022-11-29T09:44:47.489Z,41.00
2022-11-29T09:50:03.183Z,40.20
2022-11-29T09:55:28.811Z,40.70
2022-11-29T10:00:44.002Z,41.50
2022-11-29T10:05:55.279Z,40.50
2022-11-29T10:11:19.696Z,39.70
2022-11-29T10:16:35.085Z,38.50
2022-11-29T10:21:46.693Z,38.50
2022-11-29T10:26:54.375Z,39.60
2022-11-29T10:32:10.056Z,39.20
2022-11-29T10:37:21.100Z,38.80
2022-11-29T10:42:47.850Z,42.00
2022-11-29T10:47:57.580Z,38.60
2022-11-29T10:53:09.034Z,41.80
2022-11-29T10:58:23.293Z,37.50
2022-11-29T11:03:39.973Z,38.20
2022-11-29T11:08:49.766Z,36.30
2022-11-29T11:14:03.790Z,39.00
2022-11-29T11:19:29.304Z,39.20
2022-11-29T11:24:41.120Z,40.20
2022-11-29T11:29:48.183Z,40.20
2022-11-29T11:34:57.092Z,37.90
2022-11-29T11:40:28.978Z,39.40
2022-11-29T11:50:46.318Z,37.20
2022-11-29T11:56:02.120Z,37.40
2022-11-29T12:01:25.207Z,38.10
2022-11-29T12:06:43.286Z,39.20
2022-11-29T12:12:00.379Z,37.70
2022-11-29T12:17:19.937Z,37.60
2022-11-29T12:22:34.920Z,39.90
2022-11-29T12:27:41.786Z,40.10
2022-11-29T12:33:02.899Z,38.30
2022-11-29T12:38:22.697Z,38.60
2022-11-29T12:43:38.840Z,36.80
2022-11-29T12:48:55.764Z,35.20
2022-11-29T12:54:34.039Z,32.30
2022-11-29T13:00:00.823Z,37.60
2022-11-29T13:05:20.463Z,35.40
2022-11-29T13:10:44.400Z,33.80
2022-11-29T13:16:02.342Z,34.40
2022-11-29T13:21:15.441Z,34.20
2022-11-29T13:26:26.489Z,37.50
2022-11-29T13:31:34.916Z,39.70
2022-11-29T13:36:53.195Z,38.00
2022-11-29T13:42:11.612Z,36.60
2022-11-29T13:47:20.468Z,36.60
2022-11-29T13:52:38.824Z,35.30
2022-11-29T13:58:15.456Z,38.80
2022-11-29T14:03:35.035Z,41.20
2022-11-29T14:09:17.175Z,38.90
2022-11-29T14:14:21.504Z,40.30
2022-11-29T14:19:33.784Z,43.20
2022-11-29T14:24:56.537Z,41.20
2022-11-29T14:30:04.268Z,41.30
2022-11-29T14:35:18.262Z,46.10
2022-11-29T14:40:32.578Z,61.60
2022-11-29T14:45:39.593Z,67.60
2022-11-29T14:50:46.720Z,46.60
2022-11-29T14:56:13.473Z,43.90
2022-11-29T15:01:23.698Z,47.90
2022-11-29T15:06:36.934Z,50.40
2022-11-29T15:11:54.333Z,52.90
2022-11-29T15:17:23.214Z,48.20
2022-11-29T15:22:39.359Z,47.50
2022-11-29T15:27:57.415Z,50.30
2022-11-29T15:33:06.498Z,48.00
2022-11-29T15:38:20.481Z,46.90
2022-11-29T15:43:31.379Z,50.00
2022-11-29T15:48:38.161Z,48.90
2022-11-29T15:53:48.502Z,48.70
2022-11-29T15:59:02.460Z,48.30
2022-11-29T16:04:18.853Z,49.20
2022-11-29T16:09:35.902Z,50.20
2022-11-29T16:14:56.179Z,50.10
2022-11-29T16:20:25.737Z,47.50
2022-11-29T16:25:37.637Z,50.00
2022-11-29T16:35:50.417Z,50.10
2022-11-29T16:41:23.125Z,53.10
2022-11-29T16:46:38.312Z,54.70
2022-11-29T16:51:49.162Z,52.70
2022-11-29T16:56:58.034Z,54.40
2022-11-29T17:02:07.422Z,51.00
2022-11-29T17:07:23.837Z,52.00
2022-11-29T17:12:31.272Z,55.00
2022-11-29T17:17:38.366Z,53.50
2022-11-29T17:22:47.950Z,60.10
2022-11-29T17:27:54.951Z,55.90
2022-11-29T17:33:11.779Z,59.70
2022-11-29T17:38:30.031Z,62.60
2022-11-29T17:43:45.684Z,57.20
2022-11-29T17:49:02.573Z,58.00
2022-11-29T17:54:26.938Z,59.50
2022-11-29T17:59:52.659Z,60.20
2022-11-29T18:05:04.198Z,60.10
2022-11-29T18:10:12.931Z,62.60
2022-11-29T18:15:26.264Z,59.10
2022-11-29T18:20:34.572Z,58.10
2022-11-29T18:26:01.232Z,56.80
2022-11-29T18:31:17.713Z,56.60
2022-11-29T18:36:43.148Z,58.90
2022-11-29T18:41:58.458Z,60.20
2022-11-29T18:47:16.016Z,56.50
2022-11-29T18:52:23.152Z,59.70
2022-11-29T18:57:30.289Z,58.40
2022-11-29T19:02:37.119Z,56.90
2022-11-29T19:07:46.843Z,62.50
2022-11-29T19:12:54.975Z,64.90
2022-11-29T19:18:02.126Z,56.70
2022-11-29T19:23:13.962Z,57.60
2022-11-29T19:28:22.834Z,60.40
2022-11-29T19:33:29.680Z,57.20
2022-11-29T19:38:39.146Z,69.60
2022-11-29T19:43:47.998Z,58.50
2022-11-29T19:48:57.355Z,61.50
2022-11-29T19:54:06.904Z,63.00
2022-11-29T19:59:14.307Z,63.20
2022-11-29T20:04:21.550Z,66.10
2022-11-29T20:09:29.266Z,65.10
2022-11-29T20:14:36.071Z,70.30
2022-11-29T20:19:43.025Z,69.50
2022-11-29T20:24:50.623Z,75.70
2022-11-29T20:29:57.378Z,70.20
2022-11-29T20:35:06.175Z,64.80
2022-11-29T20:40:18.872Z,67.10
2022-11-29T20:45:27.242Z,66.60
2022-11-29T20:50:35.054Z,67.50
2022-11-29T20:55:47.767Z,67.80
2022-11-29T21:00:55.753Z,64.60
2022-11-29T21:06:05.043Z,68.70
2022-11-29T21:11:12.974Z,64.60
2022-11-29T21:16:27.677Z,71.70
2022-11-29T21:21:40.887Z,75.70
2022-11-29T21:26:53.106Z,72.30
2022-11-29T21:32:02.159Z,63.80
2022-11-29T21:37:11.635Z,68.80
2022-11-29T21:42:18.763Z,72.50
2022-11-29T21:47:26.181Z,70.40
2022-11-29T21:52:32.999Z,73.00
2022-11-29T21:57:40.186Z,75.90
2022-11-29T22:02:46.932Z,72.90
2022-11-29T22:07:57.933Z,72.60
2022-11-29T22:13:04.801Z,75.60
2022-11-29T22:18:12.962Z,66.00
2022-11-29T22:23:19.975Z,72.80
2022-11-29T22:28:26.902Z,73.70
2022-11-29T22:33:34.833Z,74.40
2022-11-29T22:38:42.691Z,75.60
2022-11-29T22:43:49.695Z,78.60
2022-11-29T22:49:00.466Z,73.10
2022-11-29T22:54:10.590Z,70.40
2022-11-29T22:59:17.466Z,70.00
2022-11-29T23:04:24.474Z,71.10
2022-11-29T23:09:31.428Z,74.30
2022-11-29T23:14:38.226Z,78.60
2022-11-29T23:19:45.096Z,79.70
2022-11-29T23:24:51.869Z,83.90
2022-11-29T23:29:58.767Z,80.20
2022-11-29T23:35:06.139Z,78.00
2022-11-29T23:40:14.786Z,71.60
2022-11-29T23:45:21.866Z,73.00
2022-11-29T23:50:28.628Z,78.20
2022-11-29T23:55:35.607Z,74.90
